Time;durP1;ratioP1;P1;durP2;ratioP2;P2;SDS_P1;SDS_P2;PMS_P1;PMS_P2;Temp;Humidity;BMP_temperature;BMP_pressure;BME280_temperature;BME280_humidity;BME280_pressure;Samples;Min_cycle;Max_cycle;Signal;HPM_P1;HPM_P2
2023/11/16 00:01:49;;;;;;;11.65;2.45;;;;;;;;;;4961922;28;20066;-77
2023/11/16 00:04:15;;;;;;;7.25;2.20;;;;;;;;;;4955519;28;20401;-78
2023/11/16 00:06:42;;;;;;;7.85;2.17;;;;;;;;;;4961205;28;20030;-77
2023/11/16 00:09:08;;;;;;;5.25;2.08;;;;;;;;;;4976163;28;20568;-78
2023/11/16 00:11:33;;;;;;;8.13;2.13;;;;;;;;;;4972582;28;20101;-78
2023/11/16 00:13:59;;;;;;;7.38;2.25;;;;;;;;;;4975153;28;20033;-77
2023/11/16 00:16:25;;;;;;;8.48;2.45;;;;;;;;;;4980442;28;20027;-78
2023/11/16 00:18:51;;;;;;;11.88;3.17;;;;;;;;;;4978707;28;20034;-78
2023/11/16 00:21:16;;;;;;;7.95;2.20;;;;;;;;;;4978273;28;20114;-77
2023/11/16 00:23:41;;;;;;;7.70;2.50;;;;;;;;;;4976566;28;20022;-78
2023/11/16 00:26:11;;;;;;;7.78;2.30;;;;;;;;;;4966783;28;20446;-77
2023/11/16 00:28:37;;;;;;;9.65;2.92;;;;;;;;;;4955400;28;20031;-78
2023/11/16 00:31:02;;;;;;;9.48;2.90;;;;;;;;;;4973141;28;20370;-77
2023/11/16 00:33:29;;;;;;;8.57;2.83;;;;;;;;;;4983354;28;20065;-78
2023/11/16 00:35:58;;;;;;;9.13;2.72;;;;;;;;;;4976600;28;20035;-77
2023/11/16 00:38:26;;;;;;;5.97;2.40;;;;;;;;;;4961073;28;20081;-77
2023/11/16 00:40:54;;;;;;;7.55;2.50;;;;;;;;;;4979901;28;20029;-77
2023/11/16 00:43:19;;;;;;;13.52;2.75;;;;;;;;;;4977106;28;20022;-77
2023/11/16 00:45:45;;;;;;;7.45;2.88;;;;;;;;;;4959192;28;20405;-78
2023/11/16 00:48:11;;;;;;;8.68;2.45;;;;;;;;;;4973525;28;20034;-78
2023/11/16 00:50:36;;;;;;;7.93;2.67;;;;;;;;;;4977153;28;20117;-77
2023/11/16 00:53:02;;;;;;;6.70;2.20;;;;;;;;;;4962979;28;20110;-77
2023/11/16 00:55:27;;;;;;;10.15;2.60;;;;;;;;;;4959088;28;20035;-78
2023/11/16 00:57:55;;;;;;;7.93;2.47;;;;;;;;;;4973146;28;20450;-77
2023/11/16 01:00:20;;;;;;;7.28;2.40;;;;;;;;;;4965256;28;20499;-78
2023/11/16 01:02:49;;;;;;;5.47;2.05;;;;;;;;;;4960997;28;20031;-77
2023/11/16 01:05:17;;;;;;;9.25;2.30;;;;;;;;;;4977392;28;20031;-78
2023/11/16 01:07:43;;;;;;;8.52;2.42;;;;;;;;;;4964102;28;20034;-92
2023/11/16 01:10:15;;;;;;;7.60;2.63;;;;;;;;;;4961826;28;20030;-91
2023/11/16 01:12:43;;;;;;;6.53;2.17;;;;;;;;;;4979666;28;20029;-90
2023/11/16 01:15:10;;;;;;;10.65;2.58;;;;;;;;;;4982369;28;20054;-92
2023/11/16 01:17:38;;;;;;;8.75;2.00;;;;;;;;;;4959780;28;20033;-92
2023/11/16 01:20:07;;;;;;;8.52;2.17;;;;;;;;;;4975285;28;20018;-90
2023/11/16 01:22:40;;;;;;;9.82;2.10;;;;;;;;;;4958188;28;20019;-91
2023/11/16 01:25:15;;;;;;;7.32;2.30;;;;;;;;;;4976412;28;20031;-89
2023/11/16 01:27:45;;;;;;;9.38;2.00;;;;;;;;;;4975518;28;20039;-92
2023/11/16 01:30:12;;;;;;;8.80;2.20;;;;;;;;;;4976783;28;20133;-90
2023/11/16 01:32:37;;;;;;;12.52;2.53;;;;;;;;;;4958285;28;20026;-90
2023/11/16 01:35:03;;;;;;;8.13;1.92;;;;;;;;;;4977525;28;20436;-92
2023/11/16 01:37:30;;;;;;;7.18;1.80;;;;;;;;;;4976665;28;20043;-91
2023/11/16 01:39:55;;;;;;;9.25;2.20;;;;;;;;;;4978708;28;20033;-92
2023/11/16 01:42:21;;;;;;;6.38;1.92;;;;;;;;;;4945012;28;20034;-90
2023/11/16 01:44:46;;;;;;;10.20;1.92;;;;;;;;;;4964072;28;20400;-90
2023/11/16 01:47:14;;;;;;;7.30;1.90;;;;;;;;;;4979049;28;20143;-90
2023/11/16 01:49:43;;;;;;;4.75;1.90;;;;;;;;;;4980419;28;20126;-91
2023/11/16 01:52:13;;;;;;;6.53;2.03;;;;;;;;;;4966146;28;20102;-92
2023/11/16 01:54:39;;;;;;;6.10;2.10;;;;;;;;;;4959340;28;20038;-92
2023/11/16 01:57:04;;;;;;;6.60;2.03;;;;;;;;;;4972372;28;20030;-90
2023/11/16 01:59:33;;;;;;;8.18;2.03;;;;;;;;;;4980203;28;20066;-90
2023/11/16 02:02:00;;;;;;;9.10;2.53;;;;;;;;;;4958310;28;20389;-93
2023/11/16 02:04:25;;;;;;;7.40;1.98;;;;;;;;;;4964572;28;20093;-93
2023/11/16 02:06:53;;;;;;;9.52;1.95;;;;;;;;;;4984482;28;20031;-91
2023/11/16 02:09:20;;;;;;;8.88;1.90;;;;;;;;;;4962039;28;20042;-92
2023/11/16 02:11:45;;;;;;;6.82;1.58;;;;;;;;;;4972762;28;20054;-93
2023/11/16 02:14:11;;;;;;;7.45;2.00;;;;;;;;;;4975487;28;20080;-91
2023/11/16 02:16:36;;;;;;;8.15;1.90;;;;;;;;;;4975579;28;20062;-94
2023/11/16 02:19:31;;;;;;;9.48;2.63;;;;;;;;;;4965634;28;20031;-92
2023/11/16 02:22:01;;;;;;;8.45;2.00;;;;;;;;;;4957888;28;20023;-92
2023/11/16 02:24:27;;;;;;;10.15;2.13;;;;;;;;;;4971052;28;20514;-90
2023/11/16 02:26:53;;;;;;;8.20;1.70;;;;;;;;;;4961472;28;20039;-92
2023/11/16 02:29:19;;;;;;;10.13;1.83;;;;;;;;;;4974906;28;20043;-92
2023/11/16 02:31:44;;;;;;;10.88;2.20;;;;;;;;;;4974288;28;20030;-90
2023/11/16 02:34:09;;;;;;;5.43;1.52;;;;;;;;;;4976926;28;20074;-90
2023/11/16 02:36:35;;;;;;;10.20;1.70;;;;;;;;;;4960275;28;20453;-89
2023/11/16 02:39:01;;;;;;;8.50;2.17;;;;;;;;;;4975042;28;20424;-90
2023/11/16 02:41:29;;;;;;;7.70;1.75;;;;;;;;;;4975734;28;20035;-90
2023/11/16 02:43:54;;;;;;;8.80;1.95;;;;;;;;;;4958523;28;20477;-91
2023/11/16 02:46:20;;;;;;;7.20;1.70;;;;;;;;;;4956889;28;20058;-91
2023/11/16 02:48:46;;;;;;;5.68;2.10;;;;;;;;;;4979013;28;20043;-90
2023/11/16 02:51:15;;;;;;;8.70;1.75;;;;;;;;;;4979942;28;20172;-90
2023/11/16 02:53:43;;;;;;;9.15;2.65;;;;;;;;;;4954570;28;20031;-89
2023/11/16 02:56:13;;;;;;;6.18;1.80;;;;;;;;;;4982639;28;20026;-90
2023/11/16 02:58:42;;;;;;;8.75;1.88;;;;;;;;;;4959839;28;20026;-90
2023/11/16 03:01:08;;;;;;;5.20;1.83;;;;;;;;;;4954614;28;20129;-90
2023/11/16 03:03:36;;;;;;;9.27;2.00;;;;;;;;;;4962793;28;20034;-90
2023/11/16 03:06:03;;;;;;;6.63;2.08;;;;;;;;;;4959522;28;20073;-88
2023/11/16 03:08:29;;;;;;;7.05;1.83;;;;;;;;;;4974984;28;20040;-88
2023/11/16 03:10:54;;;;;;;7.93;1.77;;;;;;;;;;4958707;28;20031;-88
2023/11/16 03:13:19;;;;;;;4.70;1.48;;;;;;;;;;4972516;28;20050;-88
2023/11/16 03:15:45;;;;;;;6.97;1.98;;;;;;;;;;4958088;28;20069;-88
2023/11/16 03:18:14;;;;;;;5.72;2.08;;;;;;;;;;4975678;28;20030;-88
2023/11/16 03:20:39;;;;;;;4.68;1.88;;;;;;;;;;4959313;28;20034;-88
2023/11/16 03:23:05;;;;;;;6.25;1.95;;;;;;;;;;4981988;28;20242;-88
2023/11/16 03:25:33;;;;;;;7.00;1.98;;;;;;;;;;4973820;28;20035;-89
2023/11/16 03:27:59;;;;;;;6.40;2.10;;;;;;;;;;4973043;28;20088;-78
2023/11/16 03:30:24;;;;;;;8.43;2.00;;;;;;;;;;4957455;28;20039;-78
2023/11/16 03:32:50;;;;;;;5.55;1.65;;;;;;;;;;4977720;28;20109;-77
2023/11/16 03:35:16;;;;;;;6.30;1.92;;;;;;;;;;4962717;28;20469;-78
2023/11/16 03:37:43;;;;;;;6.03;1.67;;;;;;;;;;4956212;28;20027;-77
2023/11/16 03:40:09;;;;;;;7.28;1.80;;;;;;;;;;4977369;28;20480;-78
2023/11/16 03:42:34;;;;;;;4.38;1.70;;;;;;;;;;4959766;28;20473;-78
2023/11/16 03:45:00;;;;;;;4.10;1.55;;;;;;;;;;4960757;28;20031;-77
2023/11/16 03:47:25;;;;;;;7.15;1.85;;;;;;;;;;4972524;28;20034;-78
2023/11/16 03:49:52;;;;;;;5.40;1.70;;;;;;;;;;4952187;28;20031;-78
2023/11/16 03:52:17;;;;;;;5.80;1.60;;;;;;;;;;4954894;28;20026;-77
2023/11/16 03:54:45;;;;;;;6.05;1.80;;;;;;;;;;4954095;28;20073;-78
2023/11/16 03:57:11;;;;;;;3.45;1.65;;;;;;;;;;4954755;28;20354;-78
2023/11/16 03:59:37;;;;;;;6.00;1.80;;;;;;;;;;4980014;28;20027;-77
2023/11/16 04:02:04;;;;;;;9.20;1.98;;;;;;;;;;4973976;28;20030;-78
2023/11/16 04:04:30;;;;;;;5.70;1.85;;;;;;;;;;4977998;28;20035;-78
2023/11/16 04:06:56;;;;;;;7.47;1.90;;;;;;;;;;4954786;28;20030;-77
2023/11/16 04:09:21;;;;;;;8.13;2.00;;;;;;;;;;4958740;28;20516;-77
2023/11/16 04:11:47;;;;;;;5.75;1.80;;;;;;;;;;4972777;28;20026;-77
2023/11/16 04:14:15;;;;;;;4.22;1.55;;;;;;;;;;4973904;28;20044;-78
2023/11/16 04:16:41;;;;;;;6.72;1.77;;;;;;;;;;4972123;28;20033;-78
2023/11/16 04:19:07;;;;;;;4.60;1.70;;;;;;;;;;4960331;28;20492;-77
2023/11/16 04:21:36;;;;;;;9.23;2.15;;;;;;;;;;4962189;28;20031;-78
2023/11/16 04:24:08;;;;;;;4.28;1.80;;;;;;;;;;4978896;28;20019;-77
2023/11/16 04:26:36;;;;;;;7.07;1.58;;;;;;;;;;4956973;28;20140;-77
2023/11/16 04:29:04;;;;;;;4.60;1.35;;;;;;;;;;4957927;28;20031;-77
2023/11/16 04:31:33;;;;;;;4.75;1.60;;;;;;;;;;4977515;28;20524;-77
2023/11/16 04:33:59;;;;;;;4.55;1.55;;;;;;;;;;4980513;28;20122;-77
2023/11/16 04:36:26;;;;;;;6.03;1.50;;;;;;;;;;4977879;28;20054;-77
2023/11/16 04:38:56;;;;;;;7.20;1.60;;;;;;;;;;4957165;28;20053;-78
2023/11/16 04:41:26;;;;;;;4.95;1.58;;;;;;;;;;4977708;28;20544;-77
2023/11/16 04:43:53;;;;;;;6.35;2.30;;;;;;;;;;4956812;28;20100;-77
2023/11/16 04:46:19;;;;;;;6.28;1.92;;;;;;;;;;4976434;28;20034;-88
2023/11/16 04:48:44;;;;;;;5.03;1.80;;;;;;;;;;4976480;28;20476;-88
2023/11/16 04:51:12;;;;;;;6.68;2.10;;;;;;;;;;4984044;28;20030;-88
2023/11/16 04:53:38;;;;;;;4.55;2.08;;;;;;;;;;4962029;28;20122;-88
2023/11/16 04:56:06;;;;;;;7.85;2.05;;;;;;;;;;4996409;28;20113;-77
2023/11/16 04:58:32;;;;;;;4.20;1.95;;;;;;;;;;4977703;28;20035;-77
2023/11/16 05:00:57;;;;;;;7.45;2.38;;;;;;;;;;4961883;28;20113;-78
2023/11/16 05:03:23;;;;;;;9.23;2.50;;;;;;;;;;4960566;28;20116;-77
2023/11/16 05:05:48;;;;;;;7.65;2.53;;;;;;;;;;4961474;28;20038;-77
2023/11/16 05:08:14;;;;;;;6.57;3.00;;;;;;;;;;4958362;28;20463;-77
2023/11/16 05:10:39;;;;;;;7.78;2.50;;;;;;;;;;4958904;28;20027;-78
2023/11/16 05:13:05;;;;;;;7.65;2.83;;;;;;;;;;4975293;28;20401;-77
2023/11/16 05:15:30;;;;;;;8.77;3.13;;;;;;;;;;4956892;28;20039;-77
2023/11/16 05:17:56;;;;;;;6.40;2.70;;;;;;;;;;4973436;28;20023;-77
2023/11/16 05:20:21;;;;;;;6.95;2.90;;;;;;;;;;4956322;28;20533;-77
2023/11/16 05:22:49;;;;;;;10.95;4.05;;;;;;;;;;4983495;28;20476;-77
2023/11/16 05:25:15;;;;;;;7.68;3.75;;;;;;;;;;4973104;28;20030;-77
2023/11/16 05:27:40;;;;;;;8.68;4.15;;;;;;;;;;4975862;28;20086;-77
2023/11/16 05:30:07;;;;;;;9.75;3.78;;;;;;;;;;4979525;28;20030;-78
2023/11/16 05:32:33;;;;;;;8.70;3.90;;;;;;;;;;4957499;28;20050;-78
2023/11/16 05:34:59;;;;;;;7.75;3.80;;;;;;;;;;4973619;28;20027;-78
2023/11/16 05:37:24;;;;;;;10.73;3.80;;;;;;;;;;4976571;28;20030;-77
2023/11/16 05:39:50;;;;;;;10.30;4.30;;;;;;;;;;4963984;28;20118;-77
2023/11/16 05:42:15;;;;;;;8.55;4.10;;;;;;;;;;4976581;28;20058;-78
2023/11/16 05:44:41;;;;;;;7.20;4.00;;;;;;;;;;4974802;28;20084;-78
2023/11/16 05:47:06;;;;;;;9.27;4.38;;;;;;;;;;4976618;28;20034;-78
2023/11/16 05:49:32;;;;;;;8.35;4.22;;;;;;;;;;4971188;28;20065;-78
2023/11/16 05:51:58;;;;;;;8.48;4.10;;;;;;;;;;4973297;28;20042;-77
2023/11/16 05:54:23;;;;;;;9.70;4.47;;;;;;;;;;4955732;28;20026;-78
2023/11/16 05:56:50;;;;;;;8.88;4.55;;;;;;;;;;4985392;28;20045;-89
2023/11/16 05:59:16;;;;;;;13.45;5.03;;;;;;;;;;4958307;28;20356;-89
2023/11/16 06:01:45;;;;;;;8.02;4.63;;;;;;;;;;4957445;28;20027;-89
2023/11/16 06:04:11;;;;;;;8.98;4.57;;;;;;;;;;4958928;28;20058;-90
2023/11/16 06:06:36;;;;;;;8.60;4.55;;;;;;;;;;4975551;28;20060;-78
2023/11/16 06:09:03;;;;;;;10.55;5.18;;;;;;;;;;4957556;28;20031;-77
2023/11/16 06:11:28;;;;;;;9.93;4.35;;;;;;;;;;4953628;28;20031;-78
2023/11/16 06:13:56;;;;;;;10.85;5.45;;;;;;;;;;4947744;28;20034;-77
2023/11/16 06:16:25;;;;;;;9.75;5.55;;;;;;;;;;4964404;28;20037;-77
2023/11/16 06:18:57;;;;;;;8.70;4.93;;;;;;;;;;4966572;28;20374;-77
2023/11/16 06:21:22;;;;;;;11.65;4.90;;;;;;;;;;4972111;28;20035;-77
2023/11/16 06:23:48;;;;;;;9.25;5.25;;;;;;;;;;4977837;28;20027;-77
2023/11/16 06:26:13;;;;;;;12.75;5.43;;;;;;;;;;4952317;28;20030;-78
2023/11/16 06:28:38;;;;;;;10.45;5.38;;;;;;;;;;4975987;28;20088;-78
2023/11/16 06:31:05;;;;;;;8.43;4.68;;;;;;;;;;4972854;28;20018;-77
2023/11/16 06:33:31;;;;;;;11.88;5.65;;;;;;;;;;4955864;28;20393;-77
2023/11/16 06:35:56;;;;;;;9.63;5.15;;;;;;;;;;4978281;28;20105;-78
2023/11/16 06:38:24;;;;;;;9.25;5.00;;;;;;;;;;4972044;28;20066;-77
2023/11/16 06:40:50;;;;;;;10.60;4.70;;;;;;;;;;4961207;28;20038;-78
2023/11/16 06:43:15;;;;;;;8.73;5.28;;;;;;;;;;4955416;28;20042;-77
2023/11/16 06:45:43;;;;;;;11.70;5.10;;;;;;;;;;4958091;28;20114;-78
2023/11/16 06:48:09;;;;;;;8.10;4.80;;;;;;;;;;4960074;28;20115;-77
2023/11/16 06:50:36;;;;;;;10.10;5.60;;;;;;;;;;4972194;28;20034;-77
2023/11/16 06:53:05;;;;;;;9.10;5.15;;;;;;;;;;4977300;28;20027;-77
2023/11/16 06:55:34;;;;;;;13.63;6.05;;;;;;;;;;4969069;28;20038;-78
2023/11/16 06:58:03;;;;;;;10.68;5.35;;;;;;;;;;4972725;28;20034;-77
2023/11/16 07:00:30;;;;;;;12.07;5.63;;;;;;;;;;4958677;28;20043;-77
2023/11/16 07:02:56;;;;;;;9.23;5.35;;;;;;;;;;4974915;28;20536;-77
2023/11/16 07:05:21;;;;;;;9.73;5.65;;;;;;;;;;4951106;28;20031;-77
2023/11/16 07:07:47;;;;;;;10.43;5.65;;;;;;;;;;4954958;28;20027;-90
2023/11/16 07:10:12;;;;;;;8.80;5.55;;;;;;;;;;4958964;28;20027;-90
2023/11/16 07:12:42;;;;;;;12.27;5.50;;;;;;;;;;4976238;28;20411;-90
2023/11/16 07:15:12;;;;;;;8.95;5.53;;;;;;;;;;4956403;28;20031;-91
2023/11/16 07:17:38;;;;;;;12.43;5.95;;;;;;;;;;4952534;28;20049;-90
2023/11/16 07:20:13;;;;;;;10.77;6.40;;;;;;;;;;4962500;28;20019;-89
2023/11/16 07:22:40;;;;;;;10.85;5.68;;;;;;;;;;4967662;28;20137;-90
2023/11/16 07:25:07;;;;;;;8.43;5.40;;;;;;;;;;4975072;28;20027;-90
2023/11/16 07:27:33;;;;;;;9.30;5.60;;;;;;;;;;4956670;28;20031;-89
2023/11/16 07:30:00;;;;;;;11.60;6.18;;;;;;;;;;4974103;28;20019;-89
2023/11/16 07:32:25;;;;;;;9.88;5.88;;;;;;;;;;4976272;28;20027;-89
2023/11/16 07:34:51;;;;;;;12.25;6.15;;;;;;;;;;4972607;28;20038;-89
2023/11/16 07:37:17;;;;;;;15.25;5.70;;;;;;;;;;4954751;28;20030;-90
2023/11/16 07:39:42;;;;;;;13.10;5.88;;;;;;;;;;4978049;28;20057;-89
2023/11/16 07:42:09;;;;;;;10.40;5.50;;;;;;;;;;4969523;28;20117;-89
2023/11/16 07:44:35;;;;;;;12.25;5.43;;;;;;;;;;4973249;28;20030;-89
2023/11/16 07:47:00;;;;;;;11.43;5.72;;;;;;;;;;4958651;28;20033;-90
2023/11/16 07:49:27;;;;;;;8.90;5.70;;;;;;;;;;4972845;28;20515;-89
2023/11/16 07:51:53;;;;;;;10.02;5.80;;;;;;;;;;4956366;28;20128;-89
2023/11/16 07:54:19;;;;;;;10.55;6.25;;;;;;;;;;4958625;28;20130;-89
2023/11/16 07:56:49;;;;;;;11.43;6.25;;;;;;;;;;4964484;28;20054;-90
2023/11/16 07:59:18;;;;;;;9.55;5.72;;;;;;;;;;4961628;28;20031;-90
2023/11/16 08:01:50;;;;;;;9.10;5.50;;;;;;;;;;4973733;28;20105;-90
2023/11/16 08:04:16;;;;;;;10.63;5.90;;;;;;;;;;4970339;28;20027;-89
2023/11/16 08:06:43;;;;;;;10.77;5.50;;;;;;;;;;4961164;28;20051;-89
2023/11/16 08:09:09;;;;;;;12.80;6.45;;;;;;;;;;4960163;28;20022;-90
2023/11/16 08:11:36;;;;;;;10.75;5.30;;;;;;;;;;4958618;28;20093;-89
2023/11/16 08:14:06;;;;;;;11.27;5.90;;;;;;;;;;4960101;28;20030;-91
2023/11/16 08:16:34;;;;;;;10.63;5.45;;;;;;;;;;4956799;28;20027;-90
2023/11/16 08:19:02;;;;;;;8.82;5.03;;;;;;;;;;4974046;28;20023;-91
2023/11/16 08:21:28;;;;;;;12.63;5.90;;;;;;;;;;4967038;28;20493;-89
2023/11/16 08:23:55;;;;;;;9.43;5.57;;;;;;;;;;4970627;28;20037;-89
2023/11/16 08:26:21;;;;;;;13.77;5.68;;;;;;;;;;4975156;28;20080;-77
2023/11/16 08:28:47;;;;;;;8.90;4.72;;;;;;;;;;4972156;28;20018;-78
2023/11/16 08:31:17;;;;;;;9.15;4.97;;;;;;;;;;4956772;28;20033;-78
2023/11/16 08:33:43;;;;;;;11.23;5.70;;;;;;;;;;4957514;28;20023;-77
2023/11/16 08:36:11;;;;;;;7.18;4.60;;;;;;;;;;4956431;28;20027;-77
2023/11/16 08:38:45;;;;;;;9.77;5.07;;;;;;;;;;4973858;28;20520;-77
2023/11/16 08:41:16;;;;;;;10.43;5.03;;;;;;;;;;4977415;28;20033;-78
2023/11/16 08:43:46;;;;;;;12.85;5.60;;;;;;;;;;4978104;28;20089;-78
2023/11/16 08:46:20;;;;;;;11.00;5.13;;;;;;;;;;4963086;28;20033;-78
2023/11/16 08:48:47;;;;;;;9.25;4.70;;;;;;;;;;4958253;28;20038;-77
2023/11/16 08:51:15;;;;;;;12.32;5.18;;;;;;;;;;4956390;28;20019;-78
2023/11/16 08:53:44;;;;;;;9.98;5.05;;;;;;;;;;4985020;28;20377;-78
2023/11/16 08:56:11;;;;;;;11.82;5.20;;;;;;;;;;4978677;28;20066;-77
2023/11/16 08:58:39;;;;;;;11.32;5.47;;;;;;;;;;4952209;28;20110;-77
2023/11/16 09:01:06;;;;;;;11.27;5.30;;;;;;;;;;4960972;28;20031;-77
2023/11/16 09:03:33;;;;;;;8.45;5.07;;;;;;;;;;4972573;28;20098;-78
2023/11/16 09:06:05;;;;;;;14.68;5.20;;;;;;;;;;4955713;28;20027;-77
2023/11/16 09:08:37;;;;;;;9.32;4.57;;;;;;;;;;4959700;28;20035;-78
2023/11/16 09:11:03;;;;;;;9.30;5.15;;;;;;;;;;4957354;28;20039;-77
2023/11/16 09:13:29;;;;;;;10.63;5.13;;;;;;;;;;4946556;28;20744;-77
2023/11/16 09:15:55;;;;;;;9.30;4.68;;;;;;;;;;4976099;28;20034;-78
2023/11/16 09:18:23;;;;;;;10.20;5.60;;;;;;;;;;4981867;28;20033;-78
2023/11/16 09:20:49;;;;;;;10.43;5.32;;;;;;;;;;4958858;28;20027;-77
2023/11/16 09:23:15;;;;;;;10.43;4.95;;;;;;;;;;4970328;28;20038;-78
2023/11/16 09:25:43;;;;;;;12.35;5.13;;;;;;;;;;4950981;28;20031;-77
2023/11/16 09:28:11;;;;;;;14.05;5.00;;;;;;;;;;4974043;28;20026;-91
2023/11/16 09:30:39;;;;;;;10.23;5.05;;;;;;;;;;4978401;28;20389;-89
2023/11/16 09:33:08;;;;;;;12.93;5.15;;;;;;;;;;4978169;28;20022;-90
2023/11/16 09:35:33;;;;;;;11.95;5.20;;;;;;;;;;4977061;28;20083;-90
2023/11/16 09:37:59;;;;;;;11.88;5.40;;;;;;;;;;4957414;28;20477;-78
2023/11/16 09:40:28;;;;;;;9.50;4.93;;;;;;;;;;4947126;28;20049;-77
2023/11/16 09:42:57;;;;;;;9.05;5.13;;;;;;;;;;4974309;28;20146;-78
2023/11/16 09:45:29;;;;;;;13.65;6.43;;;;;;;;;;4981966;28;20034;-78
2023/11/16 09:48:10;;;;;;;10.10;5.43;;;;;;;;;;4962358;28;20512;-77
2023/11/16 09:50:42;;;;;;;10.45;5.43;;;;;;;;;;4974127;28;20508;-78
2023/11/16 09:53:13;;;;;;;10.40;5.65;;;;;;;;;;4976301;28;20026;-78
2023/11/16 09:55:59;;;;;;;10.73;5.75;;;;;;;;;;4974355;28;20058;-77
2023/11/16 09:58:28;;;;;;;13.05;6.07;;;;;;;;;;4963999;28;20069;-77
2023/11/16 10:00:58;;;;;;;10.45;5.72;;;;;;;;;;4947424;28;20031;-77
2023/11/16 10:03:39;;;;;;;12.18;6.00;;;;;;;;;;4952028;28;20049;-78
2023/11/16 10:06:06;;;;;;;10.23;5.97;;;;;;;;;;4961368;28;20026;-77
2023/11/16 10:08:33;;;;;;;10.63;5.60;;;;;;;;;;4985047;28;20041;-77
2023/11/16 10:11:05;;;;;;;12.23;5.38;;;;;;;;;;4964347;28;20030;-78
2023/11/16 10:13:32;;;;;;;10.52;5.75;;;;;;;;;;4973631;28;20065;-78
2023/11/16 10:16:11;;;;;;;12.43;5.60;;;;;;;;;;4955595;28;21063;-78
2023/11/16 10:18:38;;;;;;;9.40;5.40;;;;;;;;;;4955674;28;20428;-77
2023/11/16 10:21:05;;;;;;;8.45;4.72;;;;;;;;;;4940997;28;20027;-77
2023/11/16 10:23:31;;;;;;;9.48;5.13;;;;;;;;;;4951944;28;20101;-77
2023/11/16 10:25:59;;;;;;;11.73;5.80;;;;;;;;;;4925656;28;20504;-77
2023/11/16 10:28:25;;;;;;;12.32;5.65;;;;;;;;;;4972930;28;20039;-77
2023/11/16 10:30:57;;;;;;;11.95;6.40;;;;;;;;;;4970694;28;20053;-78
2023/11/16 10:33:24;;;;;;;9.05;5.90;;;;;;;;;;4953578;28;20061;-77
2023/11/16 10:35:57;;;;;;;10.88;4.80;;;;;;;;;;4939206;28;20046;-78
2023/11/16 10:38:32;;;;;;;11.10;5.05;;;;;;;;;;4955247;28;20026;-78
2023/11/16 10:40:58;;;;;;;10.90;5.55;;;;;;;;;;4952348;28;20042;-77
2023/11/16 10:43:26;;;;;;;12.35;5.20;;;;;;;;;;4956801;28;20142;-78
2023/11/16 10:45:56;;;;;;;12.20;6.00;;;;;;;;;;4955903;28;20039;-78
2023/11/16 10:48:25;;;;;;;14.02;6.05;;;;;;;;;;4974337;28;20027;-77
2023/11/16 10:50:51;;;;;;;10.73;5.75;;;;;;;;;;4954320;28;20027;-78
2023/11/16 10:53:23;;;;;;;10.65;5.20;;;;;;;;;;4988588;28;20057;-77
2023/11/16 10:55:51;;;;;;;11.65;5.60;;;;;;;;;;4960973;28;20034;-77
2023/11/16 10:58:25;;;;;;;11.52;5.75;;;;;;;;;;4972638;28;20027;-78
2023/11/16 11:00:57;;;;;;;14.43;5.93;;;;;;;;;;4970267;28;20045;-77
2023/11/16 11:03:23;;;;;;;14.68;5.68;;;;;;;;;;4945922;28;20041;-77
2023/11/16 11:05:54;;;;;;;10.88;5.70;;;;;;;;;;4955875;28;20035;-78
2023/11/16 11:08:21;;;;;;;13.63;6.03;;;;;;;;;;4957122;28;20029;-77
2023/11/16 11:10:48;;;;;;;16.13;6.15;;;;;;;;;;4940539;28;20034;-78
2023/11/16 11:13:19;;;;;;;13.07;5.65;;;;;;;;;;4949238;28;20027;-77
2023/11/16 11:15:47;;;;;;;12.93;6.05;;;;;;;;;;4952754;28;20039;-78
2023/11/16 11:18:25;;;;;;;13.63;6.40;;;;;;;;;;4940001;28;20125;-78
2023/11/16 11:21:14;;;;;;;10.35;6.35;;;;;;;;;;4954401;28;20090;-78
2023/11/16 11:23:41;;;;;;;11.75;5.97;;;;;;;;;;4956630;28;20284;-78
2023/11/16 11:26:07;;;;;;;15.80;5.97;;;;;;;;;;4971481;28;20040;-78
2023/11/16 11:28:38;;;;;;;11.10;6.35;;;;;;;;;;4960815;28;20488;-79
2023/11/16 11:31:05;;;;;;;13.95;6.20;;;;;;;;;;4975445;28;20023;-78
2023/11/16 11:33:37;;;;;;;12.68;5.80;;;;;;;;;;4961554;28;20133;-77
2023/11/16 11:36:10;;;;;;;15.50;7.03;;;;;;;;;;4974500;28;20082;-78
2023/11/16 11:38:38;;;;;;;12.73;5.95;;;;;;;;;;4962787;28;20041;-77
2023/11/16 11:41:07;;;;;;;12.65;6.60;;;;;;;;;;4979782;28;20026;-78
2023/11/16 11:43:34;;;;;;;16.48;7.15;;;;;;;;;;4973460;28;20121;-78
2023/11/16 11:46:01;;;;;;;14.00;6.72;;;;;;;;;;4963795;28;20106;-92
2023/11/16 11:48:29;;;;;;;13.63;6.20;;;;;;;;;;4947010;28;20565;-92
2023/11/16 11:51:04;;;;;;;;;;;;;;;;;;4974937;28;20129;-93
2023/11/16 11:53:32;;;;;;;10.93;5.55;;;;;;;;;;4962886;28;19914;-93
2023/11/16 11:56:01;;;;;;;14.20;6.68;;;;;;;;;;4957436;28;20126;-78
2023/11/16 11:58:27;;;;;;;12.15;6.15;;;;;;;;;;4968701;28;20484;-91
2023/11/16 12:00:55;;;;;;;17.27;6.90;;;;;;;;;;4957157;28;20082;-92
2023/11/16 12:03:21;;;;;;;13.13;6.57;;;;;;;;;;4960912;28;20100;-92
2023/11/16 12:05:58;;;;;;;13.15;6.43;;;;;;;;;;4964920;28;20973;-94
2023/11/16 12:08:40;;;;;;;15.25;7.07;;;;;;;;;;4975283;28;20026;-77
2023/11/16 12:11:09;;;;;;;15.27;7.88;;;;;;;;;;4973901;28;20045;-77
2023/11/16 12:13:36;;;;;;;14.50;8.18;;;;;;;;;;4964978;28;20038;-78
2023/11/16 12:16:06;;;;;;;14.25;8.00;;;;;;;;;;4977189;28;20373;-78
2023/11/16 12:18:35;;;;;;;16.15;7.75;;;;;;;;;;4977523;28;20027;-78
2023/11/16 12:21:00;;;;;;;15.70;7.80;;;;;;;;;;4975752;28;20034;-78
2023/11/16 12:23:26;;;;;;;15.73;7.70;;;;;;;;;;4962539;28;20448;-78
2023/11/16 12:25:52;;;;;;;16.67;8.65;;;;;;;;;;4946682;28;20391;-77
2023/11/16 12:28:19;;;;;;;17.23;7.95;;;;;;;;;;4975982;28;20040;-77
2023/11/16 12:30:48;;;;;;;14.27;8.43;;;;;;;;;;4940597;28;20034;-78
2023/11/16 12:33:15;;;;;;;14.43;8.35;;;;;;;;;;4971209;28;20481;-78
2023/11/16 12:35:40;;;;;;;14.75;7.55;;;;;;;;;;4969547;28;20041;-78
2023/11/16 12:38:06;;;;;;;14.77;8.13;;;;;;;;;;4954991;28;20743;-77
2023/11/16 12:40:33;;;;;;;16.45;7.53;;;;;;;;;;4955805;28;20027;-78
2023/11/16 12:43:00;;;;;;;16.95;8.23;;;;;;;;;;4938458;28;20573;-77
2023/11/16 12:45:28;;;;;;;13.75;7.93;;;;;;;;;;4972959;28;20551;-78
2023/11/16 12:47:53;;;;;;;13.05;7.50;;;;;;;;;;4954838;28;20069;-77
2023/11/16 12:50:19;;;;;;;14.70;7.38;;;;;;;;;;4957831;28;20027;-78
2023/11/16 12:52:47;;;;;;;16.40;8.73;;;;;;;;;;4955973;28;20027;-77
2023/11/16 12:55:13;;;;;;;19.02;8.38;;;;;;;;;;4955691;28;20037;-78
2023/11/16 12:57:40;;;;;;;16.55;8.48;;;;;;;;;;4957957;28;20031;-79
2023/11/16 13:00:10;;;;;;;14.95;8.55;;;;;;;;;;4946968;28;20135;-78
2023/11/16 13:02:36;;;;;;;15.25;8.60;;;;;;;;;;4964013;28;20063;-78
2023/11/16 13:05:05;;;;;;;15.68;10.25;;;;;;;;;;4977336;28;20031;-78
2023/11/16 13:07:31;;;;;;;16.13;8.63;;;;;;;;;;4978683;28;20046;-78
2023/11/16 13:09:59;;;;;;;14.27;9.02;;;;;;;;;;4953475;28;20041;-78
2023/11/16 13:12:27;;;;;;;17.05;9.05;;;;;;;;;;4952468;28;20031;-77
2023/11/16 13:14:52;;;;;;;16.42;9.25;;;;;;;;;;4953875;28;20090;-78
2023/11/16 13:17:20;;;;;;;14.95;8.43;;;;;;;;;;4971614;28;20054;-93
2023/11/16 13:19:46;;;;;;;15.55;9.75;;;;;;;;;;4953172;28;20547;-94
2023/11/16 13:22:12;;;;;;;15.52;8.75;;;;;;;;;;4949265;28;20035;-93
2023/11/16 13:24:39;;;;;;;17.00;8.95;;;;;;;;;;4953140;28;20045;-93
2023/11/16 13:27:04;;;;;;;14.40;8.88;;;;;;;;;;4951875;28;20128;-94
2023/11/16 13:29:30;;;;;;;17.00;9.73;;;;;;;;;;4952054;28;20138;-93
2023/11/16 13:31:56;;;;;;;20.17;9.02;;;;;;;;;;4935380;28;20318;-93
2023/11/16 13:34:24;;;;;;;16.63;8.65;;;;;;;;;;4951434;28;20529;-92
2023/11/16 13:36:50;;;;;;;14.90;8.80;;;;;;;;;;4951476;28;20030;-92
2023/11/16 13:39:16;;;;;;;17.90;9.15;;;;;;;;;;4964687;28;20043;-93
2023/11/16 13:41:43;;;;;;;17.65;8.77;;;;;;;;;;4967219;28;20571;-92
2023/11/16 13:44:08;;;;;;;15.52;7.95;;;;;;;;;;4965223;28;20027;-93
2023/11/16 13:46:36;;;;;;;13.82;8.07;;;;;;;;;;4953419;28;20031;-94
2023/11/16 13:49:01;;;;;;;12.98;8.07;;;;;;;;;;4950500;28;20042;-91
2023/11/16 13:51:29;;;;;;;12.68;8.38;;;;;;;;;;4951397;28;20050;-91
2023/11/16 13:53:55;;;;;;;15.82;8.32;;;;;;;;;;4949467;28;20094;-93
2023/11/16 13:56:20;;;;;;;14.02;8.60;;;;;;;;;;4951086;28;20043;-91
2023/11/16 13:58:46;;;;;;;15.65;7.22;;;;;;;;;;4946637;28;20337;-93
2023/11/16 14:01:14;;;;;;;14.70;8.23;;;;;;;;;;4930929;28;20567;-94
2023/11/16 14:03:40;;;;;;;11.10;7.70;;;;;;;;;;4959033;28;20404;-93
2023/11/16 14:06:06;;;;;;;12.65;8.27;;;;;;;;;;4951907;28;20061;-78
2023/11/16 14:08:35;;;;;;;17.52;9.88;;;;;;;;;;4947278;28;20035;-94
2023/11/16 14:11:00;;;;;;;15.48;10.00;;;;;;;;;;4962674;28;20380;-92
2023/11/16 14:13:26;;;;;;;18.45;9.65;;;;;;;;;;4952211;28;20065;-93
2023/11/16 14:15:55;;;;;;;18.33;9.82;;;;;;;;;;4948085;28;20031;-93
2023/11/16 14:18:22;;;;;;;15.77;9.00;;;;;;;;;;4961762;28;20591;-93
2023/11/16 14:20:47;;;;;;;17.92;8.95;;;;;;;;;;4929055;28;20038;-92
2023/11/16 14:23:13;;;;;;;20.38;9.27;;;;;;;;;;4944180;28;20764;-93
2023/11/16 14:25:38;;;;;;;14.27;8.90;;;;;;;;;;4936781;28;20069;-94
2023/11/16 14:28:04;;;;;;;12.00;9.20;;;;;;;;;;4947629;28;20111;-91
2023/11/16 14:30:31;;;;;;;12.60;7.93;;;;;;;;;;4907546;28;20331;-92
2023/11/16 14:32:57;;;;;;;13.93;8.15;;;;;;;;;;4944007;28;20035;-91
2023/11/16 14:35:24;;;;;;;15.43;9.48;;;;;;;;;;4937523;28;20045;-92
2023/11/16 14:37:50;;;;;;;14.13;7.82;;;;;;;;;;4940973;28;20632;-93